Time;durP1;ratioP1;P1;durP2;ratioP2;P2;SDS_P1;SDS_P2;PMS_P1;PMS_P2;Temp;Humidity;BMP_temperature;BMP_pressure;BME280_temperature;BME280_humidity;BME280_pressure;Samples;Min_cycle;Max_cycle;Signal;HPM_P1;HPM_P2
2022/01/29 00:00:34;;;;;;;;;;;;;;;2.20;72.59;101368.97;4972618;28;19929;-85
2022/01/29 00:03:00;;;;;;;;;;;;;;;2.22;72.48;101355.94;4972666;28;19929;-85
2022/01/29 00:05:25;;;;;;;;;;;;;;;2.20;72.23;101349.81;4972239;28;20424;-85
2022/01/29 00:07:50;;;;;;;;;;;;;;;2.20;72.19;101345.44;4972693;28;20034;-85
2022/01/29 00:10:15;;;;;;;;;;;;;;;2.23;72.00;101340.25;4972504;28;19922;-85
2022/01/29 00:12:41;;;;;;;;;;;;;;;2.24;72.08;101330.69;4969404;28;20495;-85
2022/01/29 00:15:07;;;;;;;;;;;;;;;2.26;72.04;101324.63;4970892;28;20292;-85
2022/01/29 00:17:33;;;;;;;;;;;;;;;2.22;71.63;101309.75;4970881;28;19977;-88
2022/01/29 00:19:58;;;;;;;;;;;;;;;2.28;71.58;101306.34;4970855;28;19926;-84
2022/01/29 00:22:24;;;;;;;;;;;;;;;2.31;71.22;101296.81;4970166;28;19972;-85
2022/01/29 00:24:49;;;;;;;;;;;;;;;2.29;71.45;101295.91;4972378;28;19930;-85
2022/01/29 00:27:15;;;;;;;;;;;;;;;2.30;71.40;101295.06;4968274;28;19929;-85
2022/01/29 00:29:42;;;;;;;;;;;;;;;2.30;71.34;101300.28;4970146;28;19925;-85
2022/01/29 00:32:08;;;;;;;;;;;;;;;2.30;71.33;101297.66;4972824;28;20408;-85
2022/01/29 00:34:34;;;;;;;;;;;;;;;2.33;71.30;101296.81;4971925;28;19926;-87
2022/01/29 00:36:59;;;;;;;;;;;;;;;2.33;71.17;101295.09;4969484;28;19930;-85
2022/01/29 00:39:24;;;;;;;;;;;;;;;2.33;71.26;101287.25;4971582;28;19937;-85
2022/01/29 00:41:50;;;;;;;;;;;;;;;2.38;71.33;101289.03;4972554;28;19922;-85
2022/01/29 00:44:15;;;;;;;;;;;;;;;2.41;71.05;101284.75;4971107;28;19922;-85
2022/01/29 00:46:41;;;;;;;;;;;;;;;2.38;71.36;101291.66;4972348;28;20064;-85
2022/01/29 00:49:11;;;;;;;;;;;;;;;2.41;72.36;101287.38;4969523;28;20294;-86
2022/01/29 00:51:36;;;;;;;;;;;;;;;2.53;73.61;101271.81;4971100;28;19926;-85
2022/01/29 00:54:02;;;;;;;;;;;;;;;2.78;76.27;101261.69;4971335;28;19930;-85
2022/01/29 00:56:27;;;;;;;;;;;;;;;2.91;78.84;101267.97;4971810;28;19922;-85
2022/01/29 00:58:52;;;;;;;;;;;;;;;2.98;81.00;101280.25;4971289;28;20433;-85
2022/01/29 01:01:17;;;;;;;;;;;;;;;3.02;82.62;101276.81;4971049;28;19932;-85
2022/01/29 01:03:43;;;;;;;;;;;;;;;3.02;83.98;101279.44;4972372;28;20362;-86
2022/01/29 01:06:08;;;;;;;;;;;;;;;3.00;85.21;101273.31;4972497;28;19929;-86
2022/01/29 01:08:33;;;;;;;;;;;;;;;3.02;86.49;101282.06;4972555;28;19922;-86
2022/01/29 01:10:59;;;;;;;;;;;;;;;3.04;87.75;101269.84;4954686;28;19969;-86
2022/01/29 01:13:24;;;;;;;;;;;;;;;3.04;88.77;101271.59;4952708;28;20012;-86
2022/01/29 01:15:50;;;;;;;;;;;;;;;3.04;89.79;101275.09;4972643;28;20446;-87
2022/01/29 01:18:15;;;;;;;;;;;;;;;3.03;90.75;101265.50;4972466;28;20294;-86
2022/01/29 01:20:40;;;;;;;;;;;;;;;3.00;92.00;101262.84;4974902;28;19926;-86
2022/01/29 01:23:06;;;;;;;;;;;;;;;3.03;93.54;101255.03;4973524;28;19926;-87
2022/01/29 01:25:31;;;;;;;;;;;;;;;3.05;95.26;101255.03;4973868;28;19926;-87
2022/01/29 01:27:56;;;;;;;;;;;;;;;3.09;96.98;101260.31;4972438;28;20382;-85
2022/01/29 01:30:27;;;;;;;;;;;;;;;3.18;99.00;101253.44;4958978;28;19922;-85
2022/01/29 01:32:55;;;;;;;;;;;;;;;3.35;100.00;101254.50;4973869;28;19922;-84
2022/01/29 01:35:32;;;;;;;;;;;;;;;3.56;100.00;101258.19;4974535;28;19926;-85
2022/01/29 01:38:09;;;;;;;;;;;;;;;3.70;100.00;101260.91;4973975;28;19925;-86
2022/01/29 01:40:34;;;;;;;;;;;;;;;3.81;100.00;101249.66;4957356;28;20411;-86
2022/01/29 01:43:01;;;;;;;;;;;;;;;3.94;100.00;101255.00;4957393;28;19965;-83
2022/01/29 04:18:11;;;;;;;;;;;;;;;3.34;96.61;101098.13;4896477;28;1822264;-84
2022/01/29 04:20:36;;;;;;;;;;;;;;;3.24;96.55;101097.19;4946319;28;20381;-85
2022/01/29 04:23:01;;;;;;;;;;;;;;;3.17;96.80;101089.25;4946533;28;19918;-83
2022/01/29 04:25:27;;;;;;;;;;;;;;;3.16;96.62;101090.09;4962443;28;20013;-84
2022/01/29 04:27:52;;;;;;;;;;;;;;;3.16;96.43;101084.88;4963847;28;20376;-85
2022/01/29 04:30:29;;;;;;;;;;;;;;;3.07;96.52;101069.97;4961802;28;20013;-84
2022/01/29 04:33:02;;;;;;;;;;;;;;;3.13;96.63;101072.66;4945928;28;19981;-83
2022/01/29 04:35:28;;;;;;;;;;;;;;;3.06;96.30;101062.97;4963636;28;19918;-83
2022/01/29 04:37:53;;;;;;;;;;;;;;;3.03;96.32;101073.41;4963982;28;19918;-79
2022/01/29 04:40:19;;;;;;;;;;;;;;;3.00;96.50;101070.78;4962302;28;20366;-81
2022/01/29 04:42:44;;;;;;;;;;;;;;;3.00;96.36;101074.28;4963273;28;19928;-79
2022/01/29 04:45:10;;;;;;;;;;;;;;;2.93;96.09;101082.94;4962551;28;19925;-83
2022/01/29 04:47:35;;;;;;;;;;;;;;;2.91;95.90;101084.66;4946112;28;19922;-83
2022/01/29 04:50:00;;;;;;;;;;;;;;;2.93;95.97;101084.69;4963134;28;19919;-86
2022/01/29 04:52:25;;;;;;;;;;;;;;;2.95;95.83;101078.59;4962614;28;19919;-84
2022/01/29 04:54:51;;;;;;;;;;;;;;;2.90;95.75;101069.81;4966294;28;19922;-83
2022/01/29 04:57:16;;;;;;;;;;;;;;;2.85;95.73;101071.53;4967197;28;19918;-86
2022/01/29 04:59:41;;;;;;;;;;;;;;;2.85;95.59;101075.00;4966764;28;19922;-84
2022/01/29 05:02:06;;;;;;;;;;;;;;;2.80;95.42;101073.22;4966473;28;19919;-84
2022/01/29 05:04:32;;;;;;;;;;;;;;;2.75;95.37;101067.06;4966747;28;20317;-84
2022/01/29 05:06:57;;;;;;;;;;;;;;;2.80;95.14;101065.38;4966893;28;19918;-80
2022/01/29 05:09:22;;;;;;;;;;;;;;;2.76;95.10;101063.56;4950136;28;19923;-84
2022/01/29 05:11:50;;;;;;;;;;;;;;;2.81;95.38;101067.09;4949625;28;20300;-82
2022/01/29 05:14:31;;;;;;;;;;;;;;;2.86;95.93;101066.31;4966354;28;19922;-85
2022/01/29 05:27:51;;;;;;;;;;;;;;;2.66;95.28;101062.63;4966965;28;19925;-85
2022/01/29 05:30:16;;;;;;;;;;;;;;;2.67;94.95;101062.63;4965323;28;19926;-83
2022/01/29 05:32:41;;;;;;;;;;;;;;;2.69;94.99;101067.88;4966432;28;19925;-82
2022/01/29 05:35:07;;;;;;;;;;;;;;;2.60;94.92;101073.00;4966135;28;20322;-84
2022/01/29 05:37:32;;;;;;;;;;;;;;;2.67;95.05;101062.63;4966490;28;19977;-81
2022/01/29 05:39:57;;;;;;;;;;;;;;;2.61;94.56;101057.34;4966569;28;19976;-80
2022/01/29 05:42:22;;;;;;;;;;;;;;;2.60;94.56;101060.81;4966062;28;19925;-81
2022/01/29 05:44:48;;;;;;;;;;;;;;;2.65;94.55;101055.63;4965292;28;20428;-81
2022/01/29 05:47:13;;;;;;;;;;;;;;;2.60;94.01;101058.22;4965979;28;19918;-80
2022/01/29 08:55:48;;;;;;;;;;;;;;;1.95;80.16;101015.63;5459512;23;19978;-85
2022/01/29 08:58:13;;;;;;;;;;;;;;;1.92;80.13;101010.38;4972842;28;19988;-85
2022/01/29 09:00:40;;;;;;;;;;;;;;;1.97;79.96;101015.66;4991469;28;19918;-85
2022/01/29 09:03:06;;;;;;;;;;;;;;;1.96;80.02;101022.63;4992197;28;19961;-86
2022/01/29 09:05:31;;;;;;;;;;;;;;;1.98;80.00;101025.28;4992263;28;19980;-86
2022/01/29 09:07:56;;;;;;;;;;;;;;;1.95;79.84;101026.09;4992215;28;20357;-85
2022/01/29 09:10:21;;;;;;;;;;;;;;;1.97;79.74;101021.75;4991016;28;19922;-85
2022/01/29 09:12:47;;;;;;;;;;;;;;;1.98;79.58;101026.13;4974263;28;19921;-85
2022/01/29 09:15:12;;;;;;;;;;;;;;;1.98;79.22;101020.03;4992045;28;20020;-85
2022/01/29 09:17:39;;;;;;;;;;;;;;;1.99;79.15;101007.00;4992036;28;19913;-86
2022/01/29 09:20:06;;;;;;;;;;;;;;;2.00;79.29;101010.47;4992096;28;19945;-85
2022/01/29 09:22:31;;;;;;;;;;;;;;;2.02;79.04;101005.25;4991334;28;19918;-85
2022/01/29 09:24:56;;;;;;;;;;;;;;;2.03;78.96;101000.03;4990826;28;19921;-86
2022/01/29 09:27:21;;;;;;;;;;;;;;;2.08;78.73;100994.88;4992027;28;19932;-86
2022/01/29 09:29:47;;;;;;;;;;;;;;;2.07;78.54;100991.34;4973664;28;20460;-85
2022/01/29 09:32:12;;;;;;;;;;;;;;;2.06;78.46;100991.34;4992189;28;19929;-85
2022/01/29 09:34:37;;;;;;;;;;;;;;;2.06;78.21;100991.34;4991935;28;19918;-85
2022/01/29 09:37:02;;;;;;;;;;;;;;;2.08;78.30;100987.91;4991925;28;20376;-84
2022/01/29 09:39:28;;;;;;;;;;;;;;;2.09;78.25;100983.53;4991209;28;20369;-85
2022/01/29 09:41:53;;;;;;;;;;;;;;;2.13;78.45;100986.19;4978085;28;19977;-84
2022/01/29 09:44:19;;;;;;;;;;;;;;;2.13;78.44;100990.56;4995709;28;19922;-85
2022/01/29 09:46:46;;;;;;;;;;;;;;;2.16;78.38;100980.13;4995505;28;19921;-85
2022/01/29 09:49:12;;;;;;;;;;;;;;;2.18;78.26;100983.63;4977026;28;20281;-86
2022/01/29 09:51:38;;;;;;;;;;;;;;;2.21;78.26;100990.66;4995217;28;19945;-85
2022/01/29 09:54:03;;;;;;;;;;;;;;;2.23;78.14;100984.56;4994545;28;19917;-85
2022/01/29 09:56:30;;;;;;;;;;;;;;;2.26;78.14;100979.34;4995739;28;19925;-85
2022/01/29 09:58:56;;;;;;;;;;;;;;;2.26;77.91;100984.59;5005103;28;19921;-84
2022/01/29 10:01:22;;;;;;;;;;;;;;;2.26;78.05;100978.50;5004831;28;19925;-85
2022/01/29 10:04:14;;;;;;;;;;;;;;;2.33;77.79;100981.19;5004919;28;19961;-85
2022/01/29 10:06:43;;;;;;;;;;;;;;;2.33;77.50;100991.66;5001923;28;20004;-86
2022/01/29 10:09:11;;;;;;;;;;;;;;;2.33;77.69;100990.75;5004876;28;19917;-86
2022/01/29 10:11:37;;;;;;;;;;;;;;;2.33;77.61;100989.03;5003611;28;19917;-85
2022/01/29 10:14:03;;;;;;;;;;;;;;;2.34;77.43;100988.16;5004598;28;19982;-85
2022/01/29 10:16:30;;;;;;;;;;;;;;;2.35;77.35;100989.91;5004673;28;19971;-85
2022/01/29 10:18:58;;;;;;;;;;;;;;;2.36;77.02;100990.78;5004193;28;19918;-85
2022/01/29 10:21:24;;;;;;;;;;;;;;;2.35;76.80;100987.31;5004953;28;19972;-86
2022/01/29 10:24:00;;;;;;;;;;;;;;;2.41;76.66;100991.75;5004164;28;19922;-86
2022/01/29 10:26:30;;;;;;;;;;;;;;;2.39;76.62;100984.72;5002652;28;19918;-85
2022/01/29 10:28:56;;;;;;;;;;;;;;;2.40;76.45;100986.50;5004098;28;20385;-85
2022/01/29 10:31:22;;;;;;;;;;;;;;;2.43;76.30;100981.28;4994776;28;19928;-85
2022/01/29 10:33:47;;;;;;;;;;;;;;;2.44;76.44;100980.41;5004089;28;20451;-86
2022/01/29 10:36:16;;;;;;;;;;;;;;;2.44;76.36;100967.31;5004239;28;19926;-86
2022/01/29 10:38:57;;;;;;;;;;;;;;;2.51;76.10;100967.41;5004345;28;19918;-86
2022/01/29 10:41:29;;;;;;;;;;;;;;;2.52;75.82;100966.53;5002839;28;19925;-85
2022/01/29 10:43:55;;;;;;;;;;;;;;;2.50;75.74;100978.72;5004276;28;19980;-85
2022/01/29 10:46:43;;;;;;;;;;;;;;;2.59;75.66;100972.69;5004166;28;19925;-85
2022/01/29 10:49:17;;;;;;;;;;;;;;;2.65;75.41;100972.75;4995818;28;20015;-86
2022/01/29 10:51:52;;;;;;;;;;;;;;;2.63;75.19;100968.38;5002904;28;19996;-85
2022/01/29 10:54:19;;;;;;;;;;;;;;;2.66;75.32;100961.41;4992764;28;20280;-86
2022/01/29 10:56:51;;;;;;;;;;;;;;;2.66;75.05;100969.25;5003757;28;19925;-86
2022/01/29 10:59:16;;;;;;;;;;;;;;;2.72;74.96;100964.09;5004513;28;19925;-85
2022/01/29 11:01:48;;;;;;;;;;;;;;;2.78;74.87;100962.41;5003739;28;19921;-86
2022/01/29 11:04:13;;;;;;;;;;;;;;;2.79;74.69;100969.38;4985269;28;20007;-87
2022/01/29 11:06:43;;;;;;;;;;;;;;;2.81;74.81;100959.78;5003777;28;19961;-87
2022/01/29 11:09:09;;;;;;;;;;;;;;;2.84;74.67;100965.03;5003472;28;19918;-86
2022/01/29 11:11:35;;;;;;;;;;;;;;;2.78;74.54;100955.41;5002183;28;19983;-86
2022/01/29 11:14:00;;;;;;;;;;;;;;;2.81;74.45;100955.44;5003619;28;20325;-86
2022/01/29 11:16:26;;;;;;;;;;;;;;;2.88;74.09;100959.84;5003523;28;19921;-85
2022/01/29 11:18:51;;;;;;;;;;;;;;;2.89;74.08;100956.38;5003633;28;19933;-86
2022/01/29 11:21:16;;;;;;;;;;;;;;;2.88;74.11;100953.75;5003195;28;19924;-87
2022/01/29 11:23:42;;;;;;;;;;;;;;;2.89;74.23;100945.03;5003469;28;19929;-86
2022/01/29 11:26:08;;;;;;;;;;;;;;;2.84;74.00;100936.25;5001825;28;19972;-86
2022/01/29 11:28:34;;;;;;;;;;;;;;;2.92;74.01;100939.81;5003111;28;19929;-86
2022/01/29 11:31:14;;;;;;;;;;;;;;;2.87;73.70;100931.03;5003108;28;20269;-86
2022/01/29 11:33:58;;;;;;;;;;;;;;;2.86;73.85;100935.41;4985069;28;19917;-86
2022/01/29 11:36:47;;;;;;;;;;;;;;;2.95;73.93;100924.09;4985532;28;19928;-85
2022/01/29 11:39:21;;;;;;;;;;;;;;;2.90;73.59;100912.72;4994424;28;20304;-86
2022/01/29 11:42:06;;;;;;;;;;;;;;;2.90;73.64;100910.09;5003118;28;20347;-87
2022/01/29 11:44:31;;;;;;;;;;;;;;;2.94;73.82;100908.41;5002496;28;20288;-87
2022/01/29 11:47:17;;;;;;;;;;;;;;;2.94;73.76;100911.03;5003123;28;19924;-86
2022/01/29 11:49:42;;;;;;;;;;;;;;;2.96;73.61;100906.66;5002462;28;19918;-86
2022/01/29 11:52:23;;;;;;;;;;;;;;;2.98;73.51;100900.56;5002629;28;20028;-86
2022/01/29 11:54:59;;;;;;;;;;;;;;;3.05;73.37;100893.63;5001539;28;20019;-86
2022/01/29 11:57:24;;;;;;;;;;;;;;;3.02;73.07;100891.84;4994518;28;19932;-86
2022/01/29 11:59:50;;;;;;;;;;;;;;;3.09;73.33;100888.44;5002879;28;19921;-87
2022/01/29 12:02:15;;;;;;;;;;;;;;;3.06;73.32;100880.56;5002597;28;20372;-87
2022/01/29 12:04:51;;;;;;;;;;;;;;;3.12;73.37;100884.06;5002731;28;20345;-86
2022/01/29 12:07:33;;;;;;;;;;;;;;;3.07;73.33;100881.41;5002560;28;19917;-88
2022/01/29 12:10:10;;;;;;;;;;;;;;;3.12;73.36;100886.69;5001461;28;20000;-86
2022/01/29 12:12:36;;;;;;;;;;;;;;;3.08;73.32;100881.41;5002312;28;19946;-87
2022/01/29 12:15:10;;;;;;;;;;;;;;;3.15;73.50;100868.38;5002855;28;19928;-86
2022/01/29 12:17:44;;;;;;;;;;;;;;;3.12;73.25;100866.59;5002284;28;20357;-87
2022/01/29 12:20:14;;;;;;;;;;;;;;;3.13;73.18;100860.50;5002346;28;19917;-86
2022/01/29 12:22:41;;;;;;;;;;;;;;;3.14;73.06;100870.09;5002477;28;19925;-85
2022/01/29 12:25:08;;;;;;;;;;;;;;;3.08;72.95;100862.22;5001454;28;20008;-86
2022/01/29 12:27:55;;;;;;;;;;;;;;;3.16;73.04;100855.28;5002061;28;19922;-86
2022/01/29 12:30:25;;;;;;;;;;;;;;;3.19;72.90;100859.63;5000936;28;19924;-86
2022/01/29 12:33:01;;;;;;;;;;;;;;;3.14;72.56;100859.59;5002208;28;20430;-86
2022/01/29 12:35:33;;;;;;;;;;;;;;;3.21;72.70;100852.69;5002177;28;19926;-85
2022/01/29 12:37:58;;;;;;;;;;;;;;;3.21;72.62;100845.69;5001363;28;20359;-85
2022/01/29 12:40:25;;;;;;;;;;;;;;;3.28;72.54;100836.09;4999671;28;19957;-85
2022/01/29 12:43:09;;;;;;;;;;;;;;;3.29;72.51;100835.25;5002396;28;20177;-85
2022/01/29 12:45:35;;;;;;;;;;;;;;;3.28;72.39;100833.47;5002863;28;20324;-86
2022/01/29 12:48:07;;;;;;;;;;;;;;;3.29;72.23;100822.16;5002207;28;19921;-86
2022/01/29 12:50:33;;;;;;;;;;;;;;;3.43;72.83;100812.59;5002098;28;19980;-85
2022/01/29 12:53:05;;;;;;;;;;;;;;;3.69;75.11;100801.28;5001562;28;20661;-85
2022/01/29 12:55:31;;;;;;;;;;;;;;;3.84;77.39;100807.41;5001020;28;19921;-85
2022/01/29 12:57:57;;;;;;;;;;;;;;;3.87;79.54;100791.69;5002470;28;19929;-86
2022/01/29 13:00:23;;;;;;;;;;;;;;;3.87;81.21;100783.81;5002057;28;19918;-85
2022/01/29 13:02:51;;;;;;;;;;;;;;;3.84;82.66;100792.53;5001727;28;19922;-86
2022/01/29 13:05:16;;;;;;;;;;;;;;;3.80;83.87;100775.09;5003382;28;19924;-85
2022/01/29 13:07:44;;;;;;;;;;;;;;;3.77;85.13;100786.44;5001935;28;20294;-85
2022/01/29 13:10:12;;;;;;;;;;;;;;;3.71;86.33;100794.28;5000425;28;19965;-86
2022/01/29 13:12:39;;;;;;;;;;;;;;;3.63;87.53;100788.16;5001563;28;19925;-86
2022/01/29 13:15:06;;;;;;;;;;;;;;;3.59;88.60;100786.38;5004181;28;20012;-85
2022/01/29 13:17:31;;;;;;;;;;;;;;;3.55;89.90;100789.91;5005557;28;19925;-86
2022/01/29 13:19:56;;;;;;;;;;;;;;;3.48;91.42;100783.78;5005759;28;19917;-86
2022/01/29 13:22:25;;;;;;;;;;;;;;;3.53;93.14;100779.41;5005604;28;20432;-85
2022/01/29 13:24:55;;;;;;;;;;;;;;;3.72;95.98;100761.06;5004049;28;19922;-86
2022/01/29 13:27:33;;;;;;;;;;;;;;;3.98;99.19;100766.34;4988469;28;19928;-85
2022/01/29 13:30:12;;;;;;;;;;;;;;;4.19;100.00;100760.19;5005347;28;20286;-86
2022/01/29 13:32:38;;;;;;;;;;;;;;;4.33;100.00;100760.19;5005454;28;19944;-86
2022/01/29 13:35:21;;;;;;;;;;;;;;;4.39;100.00;100749.69;4988222;28;20365;-85
2022/01/29 13:37:47;;;;;;;;;;;;;;;4.48;100.00;100749.66;5005548;28;19918;-86
2022/01/29 13:40:18;;;;;;;;;;;;;;;4.58;100.00;100744.38;5004192;28;19925;-86
2022/01/29 13:42:57;;;;;;;;;;;;;;;4.59;100.00;100749.59;4987700;28;19928;-86
2022/01/29 13:45:23;;;;;;;;;;;;;;;4.67;100.00;100739.94;5005057;28;20064;-87
2022/01/29 13:47:59;;;;;;;;;;;;;;;4.76;100.00;100738.19;5005473;28;19926;-85
2022/01/29 13:50:27;;;;;;;;;;;;;;;4.82;100.00;100741.66;5005010;28;19928;-86
2022/01/29 13:52:57;;;;;;;;;;;;;;;4.82;100.00;100738.16;4987574;28;19921;-86
2022/01/29 13:55:22;;;;;;;;;;;;;;;4.88;100.00;100731.16;5003743;28;19933;-86
2022/01/29 13:58:01;;;;;;;;;;;;;;;4.95;100.00;100744.25;5004692;28;19921;-86
2022/01/29 14:00:26;;;;;;;;;;;;;;;5.00;100.00;100750.34;5005105;28;19917;-86
2022/01/29 14:02:52;;;;;;;;;;;;;;;5.01;100.00;100750.34;5005172;28;19932;-86
2022/01/29 14:05:22;;;;;;;;;;;;;;;5.08;100.00;100759.06;5004967;28;19918;-85
2022/01/29 14:07:47;;;;;;;;;;;;;;;5.11;100.00;100756.44;5004845;28;19925;-86
2022/01/29 14:10:14;;;;;;;;;;;;;;;5.13;100.00;100748.53;5003357;28;19921;-86
2022/01/29 14:12:45;;;;;;;;;;;;;;;5.20;100.00;100740.63;5004700;28;19924;-86
2022/01/29 14:15:11;;;;;;;;;;;;;;;5.18;100.00;100736.25;5004358;28;19972;-86
2022/01/29 14:17:37;;;;;;;;;;;;;;;5.21;100.00;100737.09;5004478;28;20008;-86
2022/01/29 14:20:05;;;;;;;;;;;;;;;5.23;100.00;100735.34;5005219;28;20009;-86
2022/01/29 14:22:31;;;;;;;;;;;;;;;5.26;100.00;100734.44;5004544;28;20077;-86
2022/01/29 14:24:59;;;;;;;;;;;;;;;5.28;100.00;100733.56;4985099;28;19928;-86
2022/01/29 14:27:24;;;;;;;;;;;;;;;4.36;100.00;100734.81;5004409;28;19928;-88
2022/01/29 14:29:49;;;;;;;;;;;;;;;3.96;100.00;100741.88;5004255;28;19918;-86
2022/01/29 14:32:15;;;;;;;;;;;;;;;3.80;100.00;100744.47;4986820;28;19929;-86
2022/01/29 14:34:41;;;;;;;;;;;;;;;3.71;100.00;100760.19;5004420;28;19917;-86
2022/01/29 14:37:07;;;;;;;;;;;;;;;3.55;100.00;100761.94;5004451;28;20330;-87
2022/01/29 14:39:32;;;;;;;;;;;;;;;3.43;99.24;100760.19;5002591;28;19918;-86
2022/01/29 14:42:01;;;;;;;;;;;;;;;3.47;98.62;100762.81;5003807;28;19921;-85
2022/01/29 14:44:27;;;;;;;;;;;;;;;3.39;97.92;100771.50;5003906;28;19922;-86
2022/01/29 14:46:56;;;;;;;;;;;;;;;3.36;97.21;100763.63;5004304;28;20356;-86
2022/01/29 14:49:22;;;;;;;;;;;;;;;3.45;96.50;100761.03;5003894;28;20396;-85
2022/01/29 14:51:47;;;;;;;;;;;;;;;3.30;96.02;100745.28;4986039;28;20293;-86
2022/01/29 14:54:13;;;;;;;;;;;;;;;3.19;95.83;100754.88;5003955;28;19917;-87
2022/01/29 14:56:41;;;;;;;;;;;;;;;3.25;95.64;100741.78;5002677;28;20372;-86
2022/01/29 14:59:06;;;;;;;;;;;;;;;3.18;95.18;100747.91;5003623;28;20029;-85
2022/01/29 15:01:31;;;;;;;;;;;;;;;3.19;94.90;100744.38;5004004;28;19936;-86
2022/01/29 15:03:56;;;;;;;;;;;;;;;3.12;94.74;100747.88;5004607;28;19928;-86
2022/01/29 15:06:23;;;;;;;;;;;;;;;3.07;94.62;100737.38;5003627;28;19928;-85
2022/01/29 15:08:49;;;;;;;;;;;;;;;3.06;94.37;100743.47;5003353;28;19921;-85
2022/01/29 15:11:15;;;;;;;;;;;;;;;3.04;94.11;100734.75;5002706;28;19917;-86
2022/01/29 15:13:40;;;;;;;;;;;;;;;3.04;93.74;100729.50;5003726;28;20289;-85
2022/01/29 15:16:05;;;;;;;;;;;;;;;2.97;93.51;100733.88;5003182;28;19925;-86
2022/01/29 15:18:30;;;;;;;;;;;;;;;2.99;93.38;100729.50;5003395;28;20018;-85
2022/01/29 15:20:58;;;;;;;;;;;;;;;2.96;92.99;100731.25;5003921;28;20611;-86
2022/01/29 15:23:24;;;;;;;;;;;;;;;2.90;93.02;100726.84;5003306;28;20447;-85
2022/01/29 15:25:51;;;;;;;;;;;;;;;2.90;92.76;100719.00;5001788;28;19925;-86
2022/01/29 15:28:16;;;;;;;;;;;;;;;2.89;92.35;100725.13;5003645;28;19928;-86
2022/01/29 15:30:43;;;;;;;;;;;;;;;2.94;92.07;100730.38;5003381;28;19926;-85
2022/01/29 15:33:11;;;;;;;;;;;;;;;2.88;92.00;100729.44;5003030;28;19941;-85
2022/01/29 15:35:37;;;;;;;;;;;;;;;2.85;91.61;100726.81;5003004;28;20365;-85
2022/01/29 15:38:02;;;;;;;;;;;;;;;2.87;91.42;100732.97;5002317;28;19917;-85
2022/01/29 15:40:28;;;;;;;;;;;;;;;2.89;91.14;100733.84;5002167;28;19918;-85
2022/01/29 15:42:53;;;;;;;;;;;;;;;2.76;90.78;100720.69;4985457;28;19918;-86
2022/01/29 15:45:19;;;;;;;;;;;;;;;2.75;90.43;100717.19;5002868;28;19928;-86
2022/01/29 15:47:44;;;;;;;;;;;;;;;2.73;90.48;100704.09;5002645;28;20357;-85
2022/01/29 15:50:10;;;;;;;;;;;;;;;2.71;90.13;100700.63;5003164;28;20385;-85
2022/01/29 15:52:35;;;;;;;;;;;;;;;2.71;89.99;100710.19;5002801;28;19988;-86
2022/01/29 15:55:00;;;;;;;;;;;;;;;2.68;89.81;100703.22;5001078;28;19921;-85
2022/01/29 15:57:25;;;;;;;;;;;;;;;2.69;89.42;100699.72;5002616;28;20020;-85
2022/01/29 15:59:51;;;;;;;;;;;;;;;2.68;89.15;100692.75;5002699;28;19917;-86
2022/01/29 16:02:17;;;;;;;;;;;;;;;2.67;88.92;100704.06;5002561;28;19925;-85
2022/01/29 16:04:42;;;;;;;;;;;;;;;2.62;88.36;100708.44;5001945;28;20028;-85
2022/01/29 16:07:08;;;;;;;;;;;;;;;2.60;88.47;100711.88;5002522;28;19917;-86
2022/01/29 16:09:33;;;;;;;;;;;;;;;2.58;88.07;100711.88;5001415;28;19924;-85
2022/01/29 16:12:02;;;;;;;;;;;;;;;2.61;87.80;100704.03;5002349;28;19972;-85
2022/01/29 16:14:27;;;;;;;;;;;;;;;2.58;87.68;100701.41;5002468;28;19940;-85
2022/01/29 16:16:53;;;;;;;;;;;;;;;2.60;87.47;100697.09;5001899;28;19921;-86
2022/01/29 16:19:19;;;;;;;;;;;;;;;2.55;87.23;100693.56;5002352;28;20012;-84
2022/01/29 16:21:44;;;;;;;;;;;;;;;2.51;87.14;100700.50;5002256;28;20331;-85
2022/01/29 16:24:10;;;;;;;;;;;;;;;2.51;87.03;100717.97;5002102;28;19922;-85
2022/01/29 16:26:35;;;;;;;;;;;;;;;2.50;87.22;100726.66;5001017;28;19931;-85
2022/01/29 16:29:00;;;;;;;;;;;;;;;2.47;86.97;100727.56;5002127;28;20353;-84
2022/01/29 16:31:26;;;;;;;;;;;;;;;2.45;86.87;100723.16;5008556;28;19996;-85
2022/01/29 16:33:52;;;;;;;;;;;;;;;2.45;86.69;100726.66;5011218;28;19926;-84
2022/01/29 16:36:17;;;;;;;;;;;;;;;2.48;86.70;100717.94;4994465;28;19972;-84
2022/01/29 16:38:43;;;;;;;;;;;;;;;2.42;86.76;100725.75;5012207;28;19921;-86
2022/01/29 16:41:09;;;;;;;;;;;;;;;2.47;86.48;100731.88;5010734;28;19921;-87
2022/01/29 16:43:34;;;;;;;;;;;;;;;2.41;86.40;100727.50;5012174;28;19925;-87
2022/01/29 16:45:59;;;;;;;;;;;;;;;2.40;86.44;100730.13;5011997;28;20360;-86
2022/01/29 16:48:26;;;;;;;;;;;;;;;2.40;86.46;100715.28;5012129;28;19921;-86
2022/01/29 16:50:52;;;;;;;;;;;;;;;2.38;86.40;100717.03;5014900;28;19917;-86
2022/01/29 16:53:17;;;;;;;;;;;;;;;2.42;86.09;100705.69;5015932;28;19972;-86
2022/01/29 16:55:43;;;;;;;;;;;;;;;2.40;86.16;100711.81;5013999;28;19917;-86
2022/01/29 16:58:08;;;;;;;;;;;;;;;2.48;86.36;100733.66;5015606;28;19925;-86
2022/01/29 17:00:34;;;;;;;;;;;;;;;2.38;86.24;100730.13;5015113;28;19918;-86
2022/01/29 17:02:59;;;;;;;;;;;;;;;2.31;86.35;100721.34;5015146;28;19953;-86
2022/01/29 17:05:24;;;;;;;;;;;;;;;2.32;86.38;100717.84;5015312;28;19917;-85
2022/01/29 17:07:49;;;;;;;;;;;;;;;2.32;86.16;100730.06;5015827;28;19918;-86
2022/01/29 17:10:17;;;;;;;;;;;;;;;2.31;86.31;100729.22;5014575;28;19921;-85
2022/01/29 17:12:43;;;;;;;;;;;;;;;2.33;86.47;100739.66;5015824;28;19944;-86
2022/01/29 17:15:09;;;;;;;;;;;;;;;2.38;86.47;100743.19;5015619;28;20756;-86
2022/01/29 17:17:35;;;;;;;;;;;;;;;2.34;86.24;100739.66;5014855;28;19952;-87
2022/01/29 17:20:00;;;;;;;;;;;;;;;2.38;86.24;100739.69;5015358;28;20049;-85
2022/01/29 17:22:26;;;;;;;;;;;;;;;2.36;85.89;100734.44;5015571;28;19956;-86
2022/01/29 17:24:52;;;;;;;;;;;;;;;2.33;85.75;100737.94;4996675;28;20380;-87
2022/01/29 17:27:17;;;;;;;;;;;;;;;2.32;85.76;100738.78;5014291;28;19929;-86
2022/01/29 17:29:44;;;;;;;;;;;;;;;2.32;85.55;100737.91;5014649;28;19917;-86
2022/01/29 17:32:09;;;;;;;;;;;;;;;2.28;85.46;100737.03;5014567;28;19975;-85
2022/01/29 17:34:38;;;;;;;;;;;;;;;2.32;85.42;100730.06;4994334;28;19921;-86
2022/01/29 17:37:04;;;;;;;;;;;;;;;2.33;85.13;100730.06;5011611;28;19929;-86
2022/01/29 17:39:29;;;;;;;;;;;;;;;2.26;85.25;100723.03;5013123;28;19926;-87
2022/01/29 17:41:54;;;;;;;;;;;;;;;2.32;85.21;100722.22;5014364;28;20395;-87
2022/01/29 17:44:20;;;;;;;;;;;;;;;2.30;85.25;100716.97;4997433;28;19921;-86
2022/01/29 17:46:46;;;;;;;;;;;;;;;2.33;85.06;100713.50;5015089;28;19918;-86
2022/01/29 17:49:12;;;;;;;;;;;;;;;2.30;84.83;100721.34;5014707;28;20536;-87
2022/01/29 17:51:37;;;;;;;;;;;;;;;2.26;84.83;100720.44;5014865;28;20020;-86
2022/01/29 17:54:02;;;;;;;;;;;;;;;2.27;84.79;100724.81;5013532;28;19918;-87
2022/01/29 17:56:27;;;;;;;;;;;;;;;2.22;84.91;100723.91;4997896;28;19975;-86
2022/01/29 17:58:53;;;;;;;;;;;;;;;2.24;84.79;100727.41;5014872;28;19922;-85
2022/01/29 18:01:18;;;;;;;;;;;;;;;2.28;84.74;100730.91;5014337;28;19921;-85
2022/01/29 18:03:43;;;;;;;;;;;;;;;2.25;84.59;100737.00;5013281;28;20381;-86
2022/01/29 18:06:09;;;;;;;;;;;;;;;2.23;84.46;100728.25;5013313;28;19918;-87
2022/01/29 18:08:34;;;;;;;;;;;;;;;2.24;84.56;100724.78;5013394;28;19917;-86
2022/01/29 18:11:00;;;;;;;;;;;;;;;2.25;84.50;100733.50;5013581;28;20004;-86
2022/01/29 18:13:25;;;;;;;;;;;;;;;2.25;84.35;100730.88;5010966;28;19989;-85
2022/01/29 18:15:50;;;;;;;;;;;;;;;2.23;84.41;100716.94;5012304;28;19926;-86
2022/01/29 18:18:16;;;;;;;;;;;;;;;2.22;84.27;100715.16;5011534;28;20328;-86
2022/01/29 18:20:42;;;;;;;;;;;;;;;2.23;84.15;100717.78;5012416;28;19937;-87
2022/01/29 18:23:07;;;;;;;;;;;;;;;2.23;84.13;100720.41;5010299;28;19944;-86
2022/01/29 18:25:32;;;;;;;;;;;;;;;2.25;83.89;100718.69;5012370;28;19929;-87
2022/01/29 18:27:58;;;;;;;;;;;;;;;2.25;83.61;100708.25;5013453;28;19963;-87
2022/01/29 18:30:24;;;;;;;;;;;;;;;2.25;83.68;100708.25;5013390;28;20360;-86
2022/01/29 18:32:49;;;;;;;;;;;;;;;2.22;83.70;100697.75;5013460;28;19918;-87
2022/01/29 18:35:15;;;;;;;;;;;;;;;2.23;83.45;100702.09;5011911;28;19922;-86